sensor_id;sensor_type;location;lat;lon;timestamp;pressure;altitude;pressure_sealevel;temperature;humidity
7930;BME280;4010;42.698;23.124;2022-11-20T00:01:04;118349.16;;;-140.64;96.13
7930;BME280;4010;42.698;23.124;2022-11-20T00:03:30;118349.16;;;-140.64;96.33
7930;BME280;4010;42.698;23.124;2022-11-20T00:06:02;118349.16;;;-140.64;96.77
7930;BME280;4010;42.698;23.124;2022-11-20T00:08:29;118349.16;;;-140.64;96.78
7930;BME280;4010;42.698;23.124;2022-11-20T00:10:55;118349.16;;;-140.64;97.30
7930;BME280;4010;42.698;23.124;2022-11-20T00:13:22;118349.16;;;-140.64;97.66
7930;BME280;4010;42.698;23.124;2022-11-20T00:15:56;118349.16;;;-140.64;98.11
7930;BME280;4010;42.698;23.124;2022-11-20T00:18:24;118349.16;;;-140.64;98.21
7930;BME280;4010;42.698;23.124;2022-11-20T00:20:51;118349.16;;;-140.64;98.46
7930;BME280;4010;42.698;23.124;2022-11-20T00:23:18;118349.16;;;-140.64;98.96
7930;BME280;4010;42.698;23.124;2022-11-20T00:25:45;118349.16;;;-140.64;98.98
7930;BME280;4010;42.698;23.124;2022-11-20T00:28:12;118349.16;;;-140.64;99.67
7930;BME280;4010;42.698;23.124;2022-11-20T00:30:38;118349.16;;;-140.64;99.62
7930;BME280;4010;42.698;23.124;2022-11-20T00:33:05;118349.16;;;-140.64;99.51
7930;BME280;4010;42.698;23.124;2022-11-20T00:35:33;118349.16;;;-140.64;100.00
7930;BME280;4010;42.698;23.124;2022-11-20T00:38:00;118349.16;;;-140.64;99.54
7930;BME280;4010;42.698;23.124;2022-11-20T00:40:26;118349.16;;;-140.64;100.00
7930;BME280;4010;42.698;23.124;2022-11-20T00:42:53;118349.16;;;-140.64;100.00
7930;BME280;4010;42.698;23.124;2022-11-20T00:45:20;118349.16;;;-140.64;100.00
7930;BME280;4010;42.698;23.124;2022-11-20T00:47:46;118349.16;;;-140.64;100.00
7930;BME280;4010;42.698;23.124;2022-11-20T00:50:13;118349.16;;;-140.64;100.00
7930;BME280;4010;42.698;23.124;2022-11-20T00:52:41;118349.16;;;-140.64;100.00
7930;BME280;4010;42.698;23.124;2022-11-20T00:55:08;118349.16;;;-140.64;100.00
7930;BME280;4010;42.698;23.124;2022-11-20T00:57:35;118349.16;;;-140.64;100.00
7930;BME280;4010;42.698;23.124;2022-11-20T01:00:02;118349.16;;;-140.64;100.00
7930;BME280;4010;42.698;23.124;2022-11-20T01:02:28;118349.16;;;-140.64;100.00
7930;BME280;4010;42.698;23.124;2022-11-20T01:04:55;118349.16;;;-140.64;100.00
7930;BME280;4010;42.698;23.124;2022-11-20T01:07:22;118349.16;;;-140.64;100.00
7930;BME280;4010;42.698;23.124;2022-11-20T01:09:50;118349.16;;;-140.64;100.00
7930;BME280;4010;42.698;23.124;2022-11-20T01:12:16;118349.16;;;-140.64;100.00
7930;BME280;4010;42.698;23.124;2022-11-20T01:14:43;118349.16;;;-140.64;100.00
7930;BME280;4010;42.698;23.124;2022-11-20T01:17:10;118349.16;;;-140.64;100.00
7930;BME280;4010;42.698;23.124;2022-11-20T01:19:37;118349.16;;;-140.64;100.00
7930;BME280;4010;42.698;23.124;2022-11-20T01:22:03;118349.16;;;-140.64;100.00
7930;BME280;4010;42.698;23.124;2022-11-20T01:24:30;118349.16;;;-140.64;100.00
7930;BME280;4010;42.698;23.124;2022-11-20T01:26:58;118349.16;;;-140.64;100.00
7930;BME280;4010;42.698;23.124;2022-11-20T01:29:25;118349.16;;;-140.64;100.00
7930;BME280;4010;42.698;23.124;2022-11-20T01:31:52;118349.16;;;-140.64;100.00
7930;BME280;4010;42.698;23.124;2022-11-20T01:34:19;118349.16;;;-140.64;100.00
7930;BME280;4010;42.698;23.124;2022-11-20T01:36:47;118349.16;;;-140.64;100.00
7930;BME280;4010;42.698;23.124;2022-11-20T01:39:16;118349.16;;;-140.64;100.00
7930;BME280;4010;42.698;23.124;2022-11-20T01:41:44;118349.16;;;-140.64;100.00
7930;BME280;4010;42.698;23.124;2022-11-20T01:44:49;118349.16;;;-140.64;100.00
7930;BME280;4010;42.698;23.124;2022-11-20T01:47:17;118349.16;;;-140.64;100.00
7930;BME280;4010;42.698;23.124;2022-11-20T01:49:48;118349.16;;;-140.64;100.00
7930;BME280;4010;42.698;23.124;2022-11-20T01:52:18;118349.16;;;-140.64;100.00
7930;BME280;4010;42.698;23.124;2022-11-20T01:54:48;118349.16;;;-140.64;100.00
7930;BME280;4010;42.698;23.124;2022-11-20T01:57:18;118349.16;;;-140.64;100.00
7930;BME280;4010;42.698;23.124;2022-11-20T01:59:53;118349.16;;;-140.64;99.78
7930;BME280;4010;42.698;23.124;2022-11-20T02:02:22;118349.16;;;-140.64;98.91
7930;BME280;4010;42.698;23.124;2022-11-20T02:04:51;118349.16;;;-140.64;98.11
7930;BME280;4010;42.698;23.124;2022-11-20T02:07:21;118349.16;;;-140.64;98.36
7930;BME280;4010;42.698;23.124;2022-11-20T02:09:49;118349.16;;;-140.64;97.94
7930;BME280;4010;42.698;23.124;2022-11-20T02:12:16;118349.16;;;-140.64;97.69
7930;BME280;4010;42.698;23.124;2022-11-20T02:14:58;118349.16;;;-140.64;97.14
7930;BME280;4010;42.698;23.124;2022-11-20T02:17:25;118349.16;;;-140.64;96.64
7930;BME280;4010;42.698;23.124;2022-11-20T02:19:52;118349.16;;;-140.64;96.50
7930;BME280;4010;42.698;23.124;2022-11-20T02:22:22;118349.16;;;-140.64;96.87
7930;BME280;4010;42.698;23.124;2022-11-20T02:24:54;118349.16;;;-140.64;96.19
7930;BME280;4010;42.698;23.124;2022-11-20T02:27:22;118349.16;;;-140.64;96.49
7930;BME280;4010;42.698;23.124;2022-11-20T02:29:52;118349.16;;;-140.64;96.59
7930;BME280;4010;42.698;23.124;2022-11-20T02:32:19;118349.16;;;-140.64;96.24
7930;BME280;4010;42.698;23.124;2022-11-20T02:34:46;118349.16;;;-140.64;96.51
7930;BME280;4010;42.698;23.124;2022-11-20T02:37:14;118349.16;;;-140.64;96.54
7930;BME280;4010;42.698;23.124;2022-11-20T02:39:41;118349.16;;;-140.64;96.19
7930;BME280;4010;42.698;23.124;2022-11-20T02:42:10;118349.16;;;-140.64;97.17
7930;BME280;4010;42.698;23.124;2022-11-20T02:44:36;118349.16;;;-140.64;96.79
7930;BME280;4010;42.698;23.124;2022-11-20T02:47:03;118349.16;;;-140.64;96.54
7930;BME280;4010;42.698;23.124;2022-11-20T02:49:30;118349.16;;;-140.64;97.42
7930;BME280;4010;42.698;23.124;2022-11-20T02:51:57;118349.16;;;-140.64;97.47
7930;BME280;4010;42.698;23.124;2022-11-20T02:54:24;118349.16;;;-140.64;98.48
7930;BME280;4010;42.698;23.124;2022-11-20T02:56:50;118349.16;;;-140.64;98.11
7930;BME280;4010;42.698;23.124;2022-11-20T02:59:18;118349.16;;;-140.64;98.79
7930;BME280;4010;42.698;23.124;2022-11-20T03:01:45;118349.16;;;-140.64;98.67
7930;BME280;4010;42.698;23.124;2022-11-20T03:04:12;118349.16;;;-140.64;99.45
7930;BME280;4010;42.698;23.124;2022-11-20T03:06:39;118349.16;;;-140.64;100.00
7930;BME280;4010;42.698;23.124;2022-11-20T03:09:05;118349.16;;;-140.64;100.00
7930;BME280;4010;42.698;23.124;2022-11-20T03:11:32;118349.16;;;-140.64;100.00
7930;BME280;4010;42.698;23.124;2022-11-20T03:14:02;118349.16;;;-140.64;100.00
7930;BME280;4010;42.698;23.124;2022-11-20T03:16:30;118349.16;;;-140.64;100.00
7930;BME280;4010;42.698;23.124;2022-11-20T03:18:57;118349.16;;;-140.64;100.00
7930;BME280;4010;42.698;23.124;2022-11-20T03:21:24;118349.16;;;-140.64;100.00
7930;BME280;4010;42.698;23.124;2022-11-20T03:23:52;118349.16;;;-140.64;100.00
7930;BME280;4010;42.698;23.124;2022-11-20T03:26:21;118349.16;;;-140.64;100.00
7930;BME280;4010;42.698;23.124;2022-11-20T03:28:49;118349.16;;;-140.64;100.00
7930;BME280;4010;42.698;23.124;2022-11-20T03:31:17;118349.16;;;-140.64;100.00
7930;BME280;4010;42.698;23.124;2022-11-20T03:33:45;118349.16;;;-140.64;100.00
7930;BME280;4010;42.698;23.124;2022-11-20T03:36:14;118349.16;;;-140.64;100.00
7930;BME280;4010;42.698;23.124;2022-11-20T03:38:41;118349.16;;;-140.64;100.00
7930;BME280;4010;42.698;23.124;2022-11-20T03:41:10;118349.16;;;-140.64;100.00
7930;BME280;4010;42.698;23.124;2022-11-20T03:43:37;118349.16;;;-140.64;100.00
7930;BME280;4010;42.698;23.124;2022-11-20T03:46:04;118349.16;;;-140.64;100.00
7930;BME280;4010;42.698;23.124;2022-11-20T03:48:31;118349.16;;;-140.64;100.00
7930;BME280;4010;42.698;23.124;2022-11-20T03:51:11;118349.16;;;-140.64;100.00
7930;BME280;4010;42.698;23.124;2022-11-20T03:53:38;118349.16;;;-140.64;100.00
7930;BME280;4010;42.698;23.124;2022-11-20T03:56:05;118349.16;;;-140.64;100.00
7930;BME280;4010;42.698;23.124;2022-11-20T03:58:33;118349.16;;;-140.64;100.00
7930;BME280;4010;42.698;23.124;2022-11-20T04:01:05;118349.16;;;-140.64;100.00
7930;BME280;4010;42.698;23.124;2022-11-20T04:03:32;118349.16;;;-140.64;100.00
7930;BME280;4010;42.698;23.124;2022-11-20T04:06:02;118349.16;;;-140.64;100.00
7930;BME280;4010;42.698;23.124;2022-11-20T04:08:30;118349.16;;;-140.64;100.00
7930;BME280;4010;42.698;23.124;2022-11-20T04:10:56;118349.16;;;-140.64;100.00
7930;BME280;4010;42.698;23.124;2022-11-20T04:13:33;118349.16;;;-140.64;100.00
7930;BME280;4010;42.698;23.124;2022-11-20T04:16:00;118349.16;;;-140.64;100.00
7930;BME280;4010;42.698;23.124;2022-11-20T04:18:27;118349.16;;;-140.64;100.00
7930;BME280;4010;42.698;23.124;2022-11-20T04:20:53;118349.16;;;-140.64;100.00
7930;BME280;4010;42.698;23.124;2022-11-20T04:23:22;118349.16;;;-140.64;100.00
7930;BME280;4010;42.698;23.124;2022-11-20T04:25:50;118349.16;;;-140.64;100.00
7930;BME280;4010;42.698;23.124;2022-11-20T04:28:17;118349.16;;;-140.64;100.00
7930;BME280;4010;42.698;23.124;2022-11-20T04:30:43;118349.16;;;-140.64;100.00
7930;BME280;4010;42.698;23.124;2022-11-20T04:33:10;118349.16;;;-140.64;100.00
7930;BME280;4010;42.698;23.124;2022-11-20T04:35:37;118349.16;;;-140.64;100.00
7930;BME280;4010;42.698;23.124;2022-11-20T04:38:05;118349.16;;;-140.64;100.00
7930;BME280;4010;42.698;23.124;2022-11-20T04:40:31;118349.16;;;-140.64;100.00
7930;BME280;4010;42.698;23.124;2022-11-20T04:42:59;118349.16;;;-140.64;100.00
7930;BME280;4010;42.698;23.124;2022-11-20T04:45:26;118349.16;;;-140.64;100.00
7930;BME280;4010;42.698;23.124;2022-11-20T04:47:53;118349.16;;;-140.64;100.00
7930;BME280;4010;42.698;23.124;2022-11-20T04:50:19;118349.16;;;-140.64;100.00
7930;BME280;4010;42.698;23.124;2022-11-20T04:52:46;118349.16;;;-140.64;100.00
7930;BME280;4010;42.698;23.124;2022-11-20T04:55:13;118349.16;;;-140.64;100.00
7930;BME280;4010;42.698;23.124;2022-11-20T04:57:40;118349.16;;;-140.64;100.00
7930;BME280;4010;42.698;23.124;2022-11-20T05:00:09;118349.16;;;-140.64;100.00
7930;BME280;4010;42.698;23.124;2022-11-20T05:02:36;118349.16;;;-140.64;100.00
7930;BME280;4010;42.698;23.124;2022-11-20T05:05:03;118349.16;;;-140.64;100.00
7930;BME280;4010;42.698;23.124;2022-11-20T05:07:29;118349.16;;;-140.64;100.00
7930;BME280;4010;42.698;23.124;2022-11-20T05:09:56;118349.16;;;-140.64;100.00
7930;BME280;4010;42.698;23.124;2022-11-20T05:12:23;118349.16;;;-140.64;100.00
7930;BME280;4010;42.698;23.124;2022-11-20T05:14:50;118349.16;;;-140.64;100.00
7930;BME280;4010;42.698;23.124;2022-11-20T05:17:18;118349.16;;;-140.64;100.00
7930;BME280;4010;42.698;23.124;2022-11-20T05:19:45;118349.16;;;-140.64;100.00
7930;BME280;4010;42.698;23.124;2022-11-20T05:22:11;118349.16;;;-140.64;100.00
7930;BME280;4010;42.698;23.124;2022-11-20T05:24:38;118349.16;;;-140.64;100.00
7930;BME280;4010;42.698;23.124;2022-11-20T05:27:05;118349.16;;;-140.64;100.00
7930;BME280;4010;42.698;23.124;2022-11-20T05:29:31;118349.16;;;-140.64;100.00
7930;BME280;4010;42.698;23.124;2022-11-20T05:31:58;118349.16;;;-140.64;100.00
7930;BME280;4010;42.698;23.124;2022-11-20T05:34:26;118349.16;;;-140.64;100.00
7930;BME280;4010;42.698;23.124;2022-11-20T05:36:53;118349.16;;;-140.64;100.00
7930;BME280;4010;42.698;23.124;2022-11-20T05:39:20;118349.16;;;-140.64;100.00
7930;BME280;4010;42.698;23.124;2022-11-20T05:41:46;118349.16;;;-140.64;100.00
7930;BME280;4010;42.698;23.124;2022-11-20T05:44:33;118349.16;;;-140.64;100.00
7930;BME280;4010;42.698;23.124;2022-11-20T05:46:59;118349.16;;;-140.64;100.00
7930;BME280;4010;42.698;23.124;2022-11-20T05:49:28;118349.16;;;-140.64;100.00
7930;BME280;4010;42.698;23.124;2022-11-20T05:51:54;118349.16;;;-140.64;100.00
7930;BME280;4010;42.698;23.124;2022-11-20T05:54:21;118349.16;;;-140.64;100.00
7930;BME280;4010;42.698;23.124;2022-11-20T05:56:48;118349.16;;;-140.64;100.00
7930;BME280;4010;42.698;23.124;2022-11-20T05:59:14;118349.16;;;-140.64;100.00
7930;BME280;4010;42.698;23.124;2022-11-20T06:01:41;118349.16;;;-140.64;100.00
7930;BME280;4010;42.698;23.124;2022-11-20T06:04:08;118349.16;;;-140.64;100.00
7930;BME280;4010;42.698;23.124;2022-11-20T06:06:36;118349.16;;;-140.64;100.00
7930;BME280;4010;42.698;23.124;2022-11-20T06:09:03;118349.16;;;-140.64;100.00
7930;BME280;4010;42.698;23.124;2022-11-20T06:11:29;118349.16;;;-140.64;100.00
7930;BME280;4010;42.698;23.124;2022-11-20T06:13:56;118349.16;;;-140.64;100.00
7930;BME280;4010;42.698;23.124;2022-11-20T06:16:23;118349.16;;;-140.64;100.00
7930;BME280;4010;42.698;23.124;2022-11-20T06:18:49;118349.16;;;-140.64;100.00
7930;BME280;4010;42.698;23.124;2022-11-20T06:21:18;118349.16;;;-140.64;100.00
7930;BME280;4010;42.698;23.124;2022-11-20T06:23:46;118349.16;;;-140.64;100.00
7930;BME280;4010;42.698;23.124;2022-11-20T06:26:15;118349.16;;;-140.64;100.00
7930;BME280;4010;42.698;23.124;2022-11-20T06:28:42;118349.16;;;-140.64;100.00
7930;BME280;4010;42.698;23.124;2022-11-20T06:31:10;118349.16;;;-140.64;100.00
7930;BME280;4010;42.698;23.124;2022-11-20T06:33:38;118349.16;;;-140.64;100.00
7930;BME280;4010;42.698;23.124;2022-11-20T06:36:05;118349.16;;;-140.64;100.00
7930;BME280;4010;42.698;23.124;2022-11-20T06:38:32;118349.16;;;-140.64;100.00
7930;BME280;4010;42.698;23.124;2022-11-20T06:41:00;118349.16;;;-140.64;100.00
7930;BME280;4010;42.698;23.124;2022-11-20T06:43:28;118349.16;;;-140.64;100.00
7930;BME280;4010;42.698;23.124;2022-11-20T06:45:56;118349.16;;;-140.64;100.00
7930;BME280;4010;42.698;23.124;2022-11-20T06:48:25;118349.16;;;-140.64;100.00
7930;BME280;4010;42.698;23.124;2022-11-20T06:50:52;118349.16;;;-140.64;100.00
7930;BME280;4010;42.698;23.124;2022-11-20T06:53:19;118349.16;;;-140.64;100.00
7930;BME280;4010;42.698;23.124;2022-11-20T06:55:46;118349.16;;;-140.64;100.00
7930;BME280;4010;42.698;23.124;2022-11-20T06:58:15;118349.16;;;-140.64;100.00
7930;BME280;4010;42.698;23.124;2022-11-20T07:00:43;118349.16;;;-140.64;100.00
7930;BME280;4010;42.698;23.124;2022-11-20T07:03:11;118349.16;;;-140.64;100.00
7930;BME280;4010;42.698;23.124;2022-11-20T07:05:38;118349.16;;;-140.64;100.00
7930;BME280;4010;42.698;23.124;2022-11-20T07:08:06;118349.16;;;-140.64;100.00
7930;BME280;4010;42.698;23.124;2022-11-20T07:10:32;118349.16;;;-140.64;100.00
7930;BME280;4010;42.698;23.124;2022-11-20T07:13:00;118349.16;;;-140.64;100.00
7930;BME280;4010;42.698;23.124;2022-11-20T07:15:28;118349.16;;;-140.64;100.00
7930;BME280;4010;42.698;23.124;2022-11-20T07:17:54;118349.16;;;-140.64;100.00
7930;BME280;4010;42.698;23.124;2022-11-20T07:20:21;118349.16;;;-140.64;100.00
7930;BME280;4010;42.698;23.124;2022-11-20T07:22:53;118349.16;;;-140.64;100.00
7930;BME280;4010;42.698;23.124;2022-11-20T07:25:21;118349.16;;;-140.64;100.00
7930;BME280;4010;42.698;23.124;2022-11-20T07:27:48;118349.16;;;-140.64;100.00
7930;BME280;4010;42.698;23.124;2022-11-20T07:30:15;118349.16;;;-140.64;100.00
7930;BME280;4010;42.698;23.124;2022-11-20T07:32:46;118349.16;;;-140.64;100.00
7930;BME280;4010;42.698;23.124;2022-11-20T07:35:13;118349.16;;;-140.64;100.00
7930;BME280;4010;42.698;23.124;2022-11-20T07:37:39;118349.16;;;-140.64;100.00
7930;BME280;4010;42.698;23.124;2022-11-20T07:40:07;118349.16;;;-140.64;100.00
7930;BME280;4010;42.698;23.124;2022-11-20T07:42:33;118349.16;;;-140.64;100.00
7930;BME280;4010;42.698;23.124;2022-11-20T07:45:00;118349.16;;;-140.64;100.00
7930;BME280;4010;42.698;23.124;2022-11-20T07:47:27;118349.16;;;-140.64;100.00
7930;BME280;4010;42.698;23.124;2022-11-20T07:49:55;118349.16;;;-140.64;100.00
7930;BME280;4010;42.698;23.124;2022-11-20T07:52:21;118349.16;;;-140.64;100.00
7930;BME280;4010;42.698;23.124;2022-11-20T07:54:48;118349.16;;;-140.64;100.00
7930;BME280;4010;42.698;23.124;2022-11-20T07:57:15;118349.16;;;-140.64;100.00
7930;BME280;4010;42.698;23.124;2022-11-20T07:59:41;118349.16;;;-140.64;100.00
7930;BME280;4010;42.698;23.124;2022-11-20T08:02:09;118349.16;;;-140.64;100.00
7930;BME280;4010;42.698;23.124;2022-11-20T08:04:36;118349.16;;;-140.64;100.00
7930;BME280;4010;42.698;23.124;2022-11-20T08:07:04;118349.16;;;-140.64;100.00
7930;BME280;4010;42.698;23.124;2022-11-20T08:09:31;118349.16;;;-140.64;100.00
7930;BME280;4010;42.698;23.124;2022-11-20T08:11:58;118349.16;;;-140.64;100.00
7930;BME280;4010;42.698;23.124;2022-11-20T08:14:57;118349.16;;;-140.64;100.00
7930;BME280;4010;42.698;23.124;2022-11-20T08:17:24;118349.16;;;-140.64;100.00
7930;BME280;4010;42.698;23.124;2022-11-20T08:19:51;118349.16;;;-140.64;100.00
7930;BME280;4010;42.698;23.124;2022-11-20T08:22:19;118349.16;;;-140.64;100.00
7930;BME280;4010;42.698;23.124;2022-11-20T08:24:46;118349.16;;;-140.64;100.00
7930;BME280;4010;42.698;23.124;2022-11-20T08:27:13;118349.16;;;-140.64;100.00
7930;BME280;4010;42.698;23.124;2022-11-20T08:29:40;118349.16;;;-140.64;100.00
7930;BME280;4010;42.698;23.124;2022-11-20T08:32:06;118349.16;;;-140.64;100.00
7930;BME280;4010;42.698;23.124;2022-11-20T08:34:33;118349.16;;;-140.64;100.00
7930;BME280;4010;42.698;23.124;2022-11-20T08:37:01;118349.16;;;-140.64;100.00
7930;BME280;4010;42.698;23.124;2022-11-20T08:39:29;118349.16;;;-140.64;100.00
7930;BME280;4010;42.698;23.124;2022-11-20T08:41:56;118349.16;;;-140.64;100.00
7930;BME280;4010;42.698;23.124;2022-11-20T08:44:22;118349.16;;;-140.64;100.00
7930;BME280;4010;42.698;23.124;2022-11-20T08:46:49;118349.16;;;-140.64;100.00
7930;BME280;4010;42.698;23.124;2022-11-20T08:49:16;118349.16;;;-140.64;100.00
7930;BME280;4010;42.698;23.124;2022-11-20T08:51:43;118349.16;;;-140.64;100.00
7930;BME280;4010;42.698;23.124;2022-11-20T08:54:10;118349.16;;;-140.64;100.00
7930;BME280;4010;42.698;23.124;2022-11-20T08:56:38;118349.16;;;-140.64;100.00
7930;BME280;4010;42.698;23.124;2022-11-20T08:59:05;118349.16;;;-140.64;100.00
7930;BME280;4010;42.698;23.124;2022-11-20T09:01:31;118349.16;;;-140.64;100.00
7930;BME280;4010;42.698;23.124;2022-11-20T09:03:58;118349.16;;;-140.64;100.00
7930;BME280;4010;42.698;23.124;2022-11-20T09:06:25;118349.16;;;-140.64;100.00
7930;BME280;4010;42.698;23.124;2022-11-20T09:08:52;118349.16;;;-140.64;100.00
7930;BME280;4010;42.698;23.124;2022-11-20T09:11:19;118349.16;;;-140.64;100.00
7930;BME280;4010;42.698;23.124;2022-11-20T09:13:47;118349.16;;;-140.64;100.00
7930;BME280;4010;42.698;23.124;2022-11-20T09:16:14;118349.16;;;-140.64;100.00
7930;BME280;4010;42.698;23.124;2022-11-20T09:18:41;118349.16;;;-140.64;100.00
7930;BME280;4010;42.698;23.124;2022-11-20T09:21:10;118349.16;;;-140.64;100.00
7930;BME280;4010;42.698;23.124;2022-11-20T09:23:38;118349.16;;;-140.64;100.00
7930;BME280;4010;42.698;23.124;2022-11-20T09:26:06;118349.16;;;-140.64;100.00
7930;BME280;4010;42.698;23.124;2022-11-20T09:28:33;118349.16;;;-140.64;100.00
7930;BME280;4010;42.698;23.124;2022-11-20T09:31:04;118349.16;;;-140.64;100.00
7930;BME280;4010;42.698;23.124;2022-11-20T09:33:31;118349.16;;;-140.64;100.00
7930;BME280;4010;42.698;23.124;2022-11-20T09:35:58;118349.16;;;-140.64;100.00
7930;BME280;4010;42.698;23.124;2022-11-20T09:38:25;118349.16;;;-140.64;100.00
7930;BME280;4010;42.698;23.124;2022-11-20T09:41:01;118349.16;;;-140.64;100.00
7930;BME280;4010;42.698;23.124;2022-11-20T09:43:45;118349.16;;;-140.64;100.00
7930;BME280;4010;42.698;23.124;2022-11-20T09:46:21;118349.16;;;-140.64;100.00
7930;BME280;4010;42.698;23.124;2022-11-20T09:49:02;118349.16;;;-140.64;100.00
7930;BME280;4010;42.698;23.124;2022-11-20T09:51:39;118349.16;;;-140.64;100.00
7930;BME280;4010;42.698;23.124;2022-11-20T09:54:15;118349.16;;;-140.64;100.00
7930;BME280;4010;42.698;23.124;2022-11-20T09:56:44;118349.16;;;-140.64;100.00
7930;BME280;4010;42.698;23.124;2022-11-20T09:59:22;118349.16;;;-140.64;100.00
7930;BME280;4010;42.698;23.124;2022-11-20T10:01:55;118349.16;;;-140.64;100.00
7930;BME280;4010;42.698;23.124;2022-11-20T10:04:22;118349.16;;;-140.64;100.00
7930;BME280;4010;42.698;23.124;2022-11-20T10:06:53;118349.16;;;-140.64;100.00
7930;BME280;4010;42.698;23.124;2022-11-20T10:09:27;118349.16;;;-140.64;100.00
7930;BME280;4010;42.698;23.124;2022-11-20T10:12:07;118349.16;;;-140.64;100.00
7930;BME280;4010;42.698;23.124;2022-11-20T10:14:48;118349.16;;;-140.64;100.00
7930;BME280;4010;42.698;23.124;2022-11-20T10:17:30;118349.16;;;-140.64;100.00
7930;BME280;4010;42.698;23.124;2022-11-20T10:20:15;118349.16;;;-140.64;100.00
7930;BME280;4010;42.698;23.124;2022-11-20T10:22:53;118349.16;;;-140.64;100.00
7930;BME280;4010;42.698;23.124;2022-11-20T10:25:26;118349.16;;;-140.64;100.00
7930;BME280;4010;42.698;23.124;2022-11-20T10:28:11;118349.16;;;-140.64;100.00
7930;BME280;4010;42.698;23.124;2022-11-20T10:30:43;118349.16;;;-140.64;100.00
7930;BME280;4010;42.698;23.124;2022-11-20T10:33:16;118349.16;;;-140.64;100.00
7930;BME280;4010;42.698;23.124;2022-11-20T10:35:48;118349.16;;;-140.64;100.00
7930;BME280;4010;42.698;23.124;2022-11-20T10:38:20;118349.16;;;-140.64;100.00
7930;BME280;4010;42.698;23.124;2022-11-20T10:40:49;118349.16;;;-140.64;100.00
7930;BME280;4010;42.698;23.124;2022-11-20T10:43:19;118349.16;;;-140.64;100.00
7930;BME280;4010;42.698;23.124;2022-11-20T10:45:53;118349.16;;;-140.64;100.00
7930;BME280;4010;42.698;23.124;2022-11-20T10:48:25;118349.16;;;-140.64;100.00
7930;BME280;4010;42.698;23.124;2022-11-20T10:51:04;118349.16;;;-140.64;100.00
7930;BME280;4010;42.698;23.124;2022-11-20T10:53:44;118349.16;;;-140.64;100.00
7930;BME280;4010;42.698;23.124;2022-11-20T10:56:27;118349.16;;;-140.64;100.00
7930;BME280;4010;42.698;23.124;2022-11-20T10:59:06;118349.16;;;-140.64;100.00
7930;BME280;4010;42.698;23.124;2022-11-20T11:01:40;118349.16;;;-140.64;100.00
7930;BME280;4010;42.698;23.124;2022-11-20T11:04:22;118349.16;;;-140.64;100.00
7930;BME280;4010;42.698;23.124;2022-11-20T11:06:51;118349.16;;;-140.64;100.00
7930;BME280;4010;42.698;23.124;2022-11-20T11:09:26;118349.16;;;-140.64;100.00
7930;BME280;4010;42.698;23.124;2022-11-20T11:11:56;118349.16;;;-140.64;100.00
7930;BME280;4010;42.698;23.124;2022-11-20T11:14:23;118349.16;;;-140.64;100.00
7930;BME280;4010;42.698;23.124;2022-11-20T11:16:52;118349.16;;;-140.64;100.00
7930;BME280;4010;42.698;23.124;2022-11-20T11:19:20;118349.16;;;-140.64;100.00
7930;BME280;4010;42.698;23.124;2022-11-20T11:21:47;118349.16;;;-140.64;100.00
7930;BME280;4010;42.698;23.124;2022-11-20T11:24:21;118349.16;;;-140.64;100.00
7930;BME280;4010;42.698;23.124;2022-11-20T11:26:53;118349.16;;;-140.64;100.00
7930;BME280;4010;42.698;23.124;2022-11-20T11:29:21;118349.16;;;-140.64;100.00
7930;BME280;4010;42.698;23.124;2022-11-20T11:31:49;118349.16;;;-140.64;100.00
7930;BME280;4010;42.698;23.124;2022-11-20T11:34:16;118349.16;;;-140.64;100.00
7930;BME280;4010;42.698;23.124;2022-11-20T11:36:55;118349.16;;;-140.64;100.00
7930;BME280;4010;42.698;23.124;2022-11-20T11:39:23;118349.16;;;-140.64;100.00
7930;BME280;4010;42.698;23.124;2022-11-20T11:41:50;118349.16;;;-140.64;100.00
7930;BME280;4010;42.698;23.124;2022-11-20T11:44:20;118349.16;;;-140.64;100.00
7930;BME280;4010;42.698;23.124;2022-11-20T11:47:09;118349.16;;;-140.64;100.00
7930;BME280;4010;42.698;23.124;2022-11-20T11:49:37;118349.16;;;-140.64;100.00
7930;BME280;4010;42.698;23.124;2022-11-20T11:52:12;118349.16;;;-140.64;100.00
7930;BME280;4010;42.698;23.124;2022-11-20T11:54:45;118349.16;;;-140.64;100.00
7930;BME280;4010;42.698;23.124;2022-11-20T11:57:18;118349.16;;;-140.64;100.00
7930;BME280;4010;42.698;23.124;2022-11-20T11:59:54;118349.16;;;-140.64;100.00
7930;BME280;4010;42.698;23.124;2022-11-20T12:02:32;118349.16;;;-140.64;100.00
7930;BME280;4010;42.698;23.124;2022-11-20T12:05:08;118349.16;;;-140.64;100.00
7930;BME280;4010;42.698;23.124;2022-11-20T12:07:43;118349.16;;;-140.64;100.00
7930;BME280;4010;42.698;23.124;2022-11-20T12:10:17;118349.16;;;-140.64;100.00
7930;BME280;4010;42.698;23.124;2022-11-20T12:12:49;118349.16;;;-140.64;100.00
7930;BME280;4010;42.698;23.124;2022-11-20T12:15:25;118349.16;;;-140.64;100.00
7930;BME280;4010;42.698;23.124;2022-11-20T12:17:53;118349.16;;;-140.64;100.00
7930;BME280;4010;42.698;23.124;2022-11-20T12:20:21;118349.16;;;-140.64;100.00
7930;BME280;4010;42.698;23.124;2022-11-20T12:22:55;118349.16;;;-140.64;100.00
7930;BME280;4010;42.698;23.124;2022-11-20T12:25:24;118349.16;;;-140.64;100.00
7930;BME280;4010;42.698;23.124;2022-11-20T12:28:09;118349.16;;;-140.64;100.00
7930;BME280;4010;42.698;23.124;2022-11-20T12:30:45;118349.16;;;-140.64;100.00
7930;BME280;4010;42.698;23.124;2022-11-20T12:33:28;118349.16;;;-140.64;100.00
7930;BME280;4010;42.698;23.124;2022-11-20T12:36:06;118349.16;;;-140.64;100.00
7930;BME280;4010;42.698;23.124;2022-11-20T12:38:45;118349.16;;;-140.64;100.00
7930;BME280;4010;42.698;23.124;2022-11-20T12:41:26;118349.16;;;-140.64;100.00